createdAt,value
2023-01-20T00:01:29.625Z,13.13
2023-01-20T00:03:58.086Z,12.75
2023-01-20T00:06:30.176Z,12.45
2023-01-20T00:09:00.382Z,12.13
2023-01-20T00:11:29.038Z,12.70
2023-01-20T00:13:58.562Z,12.10
2023-01-20T00:16:26.775Z,11.93
2023-01-20T00:18:54.732Z,13.73
2023-01-20T00:21:22.525Z,13.05
2023-01-20T00:23:50.348Z,12.70
2023-01-20T00:26:20.486Z,14.68
2023-01-20T00:28:48.606Z,13.95
2023-01-20T00:31:19.164Z,15.63
2023-01-20T00:33:48.017Z,13.07
2023-01-20T00:36:18.271Z,13.30
2023-01-20T00:38:46.038Z,12.32
2023-01-20T00:41:14.145Z,12.68
2023-01-20T00:43:41.407Z,13.13
2023-01-20T00:46:09.842Z,12.60
2023-01-20T00:48:37.881Z,11.93
2023-01-20T00:51:06.673Z,11.65
2023-01-20T00:53:34.686Z,12.10
2023-01-20T00:56:02.364Z,13.05
2023-01-20T00:58:29.710Z,11.65
2023-01-20T01:00:58.945Z,13.38
2023-01-20T01:03:28.165Z,13.00
2023-01-20T01:06:06.423Z,12.40
2023-01-20T01:08:35.069Z,13.13
2023-01-20T01:11:03.055Z,12.88
2023-01-20T01:13:31.313Z,12.20
2023-01-20T01:15:58.969Z,11.48
2023-01-20T01:18:26.208Z,12.13
2023-01-20T01:20:53.803Z,12.73
2023-01-20T01:23:21.064Z,12.50
2023-01-20T01:25:48.629Z,12.73
2023-01-20T01:28:16.127Z,11.70
2023-01-20T01:30:43.713Z,12.70
2023-01-20T01:33:11.157Z,13.00
2023-01-20T01:35:38.745Z,12.63
2023-01-20T01:38:06.012Z,13.88
2023-01-20T01:40:34.492Z,11.70
2023-01-20T01:43:01.764Z,13.93
2023-01-20T01:45:30.735Z,13.13
2023-01-20T01:48:03.287Z,14.60
2023-01-20T01:50:35.881Z,13.57
2023-01-20T01:53:03.404Z,14.45
2023-01-20T01:55:35.290Z,14.68
2023-01-20T01:58:05.269Z,14.02
2023-01-20T02:00:33.085Z,13.60
2023-01-20T02:03:00.940Z,13.80
2023-01-20T02:05:30.790Z,13.68
2023-01-20T02:07:59.317Z,13.93
2023-01-20T02:10:27.001Z,14.38
2023-01-20T02:12:54.829Z,12.82
2023-01-20T02:15:30.544Z,13.70
2023-01-20T02:18:03.949Z,13.27
2023-01-20T02:20:57.639Z,14.60
2023-01-20T02:23:47.942Z,13.95
2023-01-20T02:26:37.965Z,13.88
2023-01-20T02:29:30.072Z,14.98
2023-01-20T02:34:46.113Z,13.27
2023-01-20T02:37:25.573Z,14.30
2023-01-20T02:40:08.433Z,13.50
2023-01-20T02:42:47.147Z,12.98
2023-01-20T02:45:34.239Z,14.25
2023-01-20T02:48:31.727Z,13.75
2023-01-20T02:51:01.974Z,14.07
2023-01-20T02:53:44.934Z,14.63
2023-01-20T02:56:13.048Z,16.02
2023-01-20T02:58:50.305Z,14.98
2023-01-20T03:01:25.187Z,15.88
2023-01-20T03:03:57.850Z,15.63
2023-01-20T03:06:28.818Z,16.88
2023-01-20T03:08:58.899Z,15.38
2023-01-20T03:11:27.587Z,17.15
2023-01-20T03:13:55.070Z,15.75
2023-01-20T03:16:25.209Z,15.13
2023-01-20T03:18:54.473Z,16.17
2023-01-20T03:21:22.547Z,14.55
2023-01-20T03:23:55.895Z,15.07
2023-01-20T03:26:23.984Z,15.27
2023-01-20T03:28:52.148Z,14.27
2023-01-20T03:31:29.896Z,14.52
2023-01-20T03:34:00.388Z,14.20
2023-01-20T03:36:30.232Z,14.70
2023-01-20T03:38:59.516Z,15.43
2023-01-20T03:41:55.912Z,14.38
2023-01-20T03:44:41.684Z,16.35
2023-01-20T03:47:34.568Z,14.25
2023-01-20T03:50:11.279Z,16.13
2023-01-20T03:52:48.721Z,15.73
2023-01-20T03:55:23.045Z,14.90
2023-01-20T03:58:08.068Z,17.25
2023-01-20T04:00:41.002Z,16.27
2023-01-20T04:03:15.395Z,15.73
2023-01-20T04:05:44.368Z,14.07
2023-01-20T04:08:14.854Z,15.63
2023-01-20T04:10:45.664Z,14.57
2023-01-20T04:13:13.076Z,14.38
2023-01-20T04:15:45.596Z,14.80
2023-01-20T04:18:13.757Z,14.63
2023-01-20T04:20:42.139Z,13.57
2023-01-20T04:23:17.933Z,14.60
2023-01-20T04:25:45.848Z,15.23
2023-01-20T04:28:13.077Z,15.00
2023-01-20T04:30:40.702Z,15.43
2023-01-20T04:33:07.976Z,15.93
2023-01-20T04:35:35.661Z,15.82
2023-01-20T04:38:02.983Z,15.23
2023-01-20T04:40:30.673Z,14.73
2023-01-20T04:42:57.991Z,14.77
2023-01-20T04:45:25.608Z,14.95
2023-01-20T04:47:52.935Z,16.10
2023-01-20T04:50:20.571Z,14.93
2023-01-20T04:52:48.253Z,14.18
2023-01-20T04:55:16.230Z,13.27
2023-01-20T04:57:43.728Z,14.57
2023-01-20T05:00:12.138Z,14.00
2023-01-20T05:02:39.441Z,15.50
2023-01-20T05:05:07.335Z,15.18
2023-01-20T05:07:34.807Z,15.45
2023-01-20T05:10:02.349Z,14.40
2023-01-20T05:12:29.742Z,16.10
2023-01-20T05:14:57.397Z,14.48
2023-01-20T05:17:24.638Z,14.85
2023-01-20T05:19:52.153Z,14.45
2023-01-20T05:22:19.454Z,14.52
2023-01-20T05:24:46.974Z,17.20
2023-01-20T05:27:14.344Z,15.82
2023-01-20T05:29:41.870Z,15.77
2023-01-20T05:32:09.103Z,16.60
2023-01-20T05:34:36.645Z,14.50
2023-01-20T05:37:03.837Z,15.70
2023-01-20T05:39:31.372Z,17.80
2023-01-20T05:41:58.712Z,15.57
2023-01-20T05:44:26.334Z,17.58
2023-01-20T05:46:53.629Z,16.73
2023-01-20T05:49:21.197Z,15.88
2023-01-20T05:51:48.644Z,15.30
2023-01-20T05:54:16.293Z,16.85
2023-01-20T05:56:43.619Z,16.20
2023-01-20T05:59:11.252Z,16.23
2023-01-20T06:01:38.607Z,15.05
2023-01-20T06:04:06.633Z,15.93
2023-01-20T06:06:34.044Z,17.17
2023-01-20T06:09:01.849Z,17.65
2023-01-20T06:11:29.596Z,18.70
2023-01-20T06:13:57.118Z,19.40
2023-01-20T06:16:24.424Z,18.58
2023-01-20T06:18:51.985Z,18.33
2023-01-20T06:21:19.270Z,17.88
2023-01-20T06:23:47.003Z,15.90
2023-01-20T06:26:15.099Z,16.65
2023-01-20T06:28:43.141Z,17.42
2023-01-20T06:31:15.918Z,18.65
2023-01-20T06:33:44.164Z,17.17
2023-01-20T06:36:17.660Z,16.73
2023-01-20T06:38:50.746Z,16.83
2023-01-20T06:41:19.638Z,16.55
2023-01-20T06:43:47.615Z,16.15
2023-01-20T06:46:16.230Z,16.48
2023-01-20T06:48:45.277Z,16.30
2023-01-20T06:51:15.527Z,17.02
2023-01-20T06:53:43.752Z,16.95
2023-01-20T06:56:12.941Z,16.88
2023-01-20T06:58:41.292Z,18.20
2023-01-20T07:01:20.731Z,17.05
2023-01-20T07:03:48.395Z,16.85
2023-01-20T07:06:20.143Z,16.08
2023-01-20T07:08:47.820Z,18.17
2023-01-20T07:11:15.060Z,18.77
2023-01-20T07:13:43.279Z,19.58
2023-01-20T07:16:14.409Z,18.17
2023-01-20T07:18:47.582Z,18.88
2023-01-20T07:21:14.944Z,21.77
2023-01-20T07:23:42.505Z,21.60
2023-01-20T07:26:12.398Z,19.42
2023-01-20T07:28:40.779Z,18.90
2023-01-20T07:31:19.224Z,19.85
2023-01-20T07:33:47.190Z,19.48
2023-01-20T07:36:15.755Z,17.83
2023-01-20T07:38:43.334Z,18.98
2023-01-20T07:41:16.017Z,19.42
2023-01-20T07:43:45.100Z,18.42
2023-01-20T07:46:13.686Z,18.60
2023-01-20T07:48:41.687Z,17.58
2023-01-20T07:51:12.137Z,18.27
2023-01-20T07:53:43.654Z,18.58
2023-01-20T07:56:15.536Z,18.50
2023-01-20T07:58:47.676Z,17.95
2023-01-20T08:01:18.402Z,17.65
2023-01-20T08:03:46.476Z,18.00
2023-01-20T08:06:16.778Z,17.42
2023-01-20T08:08:44.658Z,17.63
2023-01-20T08:11:14.174Z,17.33
2023-01-20T08:13:42.203Z,17.50
2023-01-20T08:16:12.376Z,17.88
2023-01-20T08:18:40.762Z,18.08
2023-01-20T08:21:16.460Z,18.40
2023-01-20T08:23:44.032Z,20.33
2023-01-20T08:26:11.394Z,18.27
2023-01-20T08:28:38.935Z,17.88
2023-01-20T08:31:09.123Z,17.73
2023-01-20T08:33:37.179Z,18.80
2023-01-20T08:36:13.456Z,17.42
2023-01-20T08:38:42.244Z,15.23
2023-01-20T08:41:18.338Z,15.13
2023-01-20T08:43:45.940Z,14.80
2023-01-20T08:46:15.398Z,15.77
2023-01-20T08:48:44.349Z,14.90
2023-01-20T08:51:15.940Z,14.43
2023-01-20T08:56:12.642Z,14.48
2023-01-20T08:58:40.550Z,14.77
2023-01-20T09:01:12.098Z,15.13
2023-01-20T09:03:40.967Z,16.20
2023-01-20T09:06:09.319Z,15.60
2023-01-20T09:08:38.069Z,14.63
2023-01-20T09:11:11.258Z,15.07
2023-01-20T09:13:39.440Z,15.48
2023-01-20T09:16:07.270Z,15.32
2023-01-20T09:18:35.538Z,15.90
2023-01-20T09:21:06.748Z,15.20
2023-01-20T09:23:36.835Z,15.38
2023-01-20T09:26:05.935Z,15.77
2023-01-20T09:28:34.480Z,14.52
2023-01-20T09:31:05.537Z,15.63
2023-01-20T09:33:36.211Z,11.65
2023-01-20T09:36:04.467Z,16.10
2023-01-20T09:38:50.502Z,15.38
2023-01-20T09:41:49.864Z,15.63
2023-01-20T09:44:43.090Z,15.50
2023-01-20T09:47:26.191Z,15.15
2023-01-20T09:50:30.367Z,15.00
2023-01-20T09:53:32.787Z,15.85
2023-01-20T09:56:09.086Z,14.70
2023-01-20T09:59:07.071Z,15.02
2023-01-20T10:01:40.956Z,15.18
2023-01-20T10:04:17.518Z,14.02
2023-01-20T10:06:50.374Z,14.35
2023-01-20T10:09:26.286Z,15.25
2023-01-20T10:12:09.673Z,14.50
2023-01-20T10:15:18.691Z,15.32
2023-01-20T10:17:59.636Z,14.82
2023-01-20T10:20:41.731Z,14.23
2023-01-20T10:23:17.691Z,14.13
2023-01-20T10:25:53.338Z,14.80
2023-01-20T10:28:29.306Z,13.55
2023-01-20T10:31:00.956Z,14.48
2023-01-20T10:33:35.417Z,15.00
2023-01-20T10:36:02.945Z,15.77
2023-01-20T10:38:43.253Z,14.80
2023-01-20T10:41:21.548Z,14.93
2023-01-20T10:43:49.098Z,16.55
2023-01-20T10:46:28.248Z,15.05
2023-01-20T10:49:18.434Z,16.05
2023-01-20T10:51:54.412Z,16.25
2023-01-20T10:54:30.965Z,15.75
2023-01-20T10:56:59.667Z,17.00
2023-01-20T10:59:53.538Z,17.60
2023-01-20T11:02:32.135Z,18.60
2023-01-20T11:05:18.717Z,17.55
2023-01-20T11:07:47.685Z,18.02
2023-01-20T11:10:20.216Z,18.98
2023-01-20T11:12:50.830Z,18.27
2023-01-20T11:15:22.019Z,18.93
2023-01-20T11:18:15.386Z,20.23
2023-01-20T11:20:56.090Z,20.63
2023-01-20T11:23:27.209Z,19.42
2023-01-20T11:25:57.796Z,21.58
2023-01-20T11:28:25.816Z,20.75
2023-01-20T11:30:56.354Z,20.80
2023-01-20T11:33:26.587Z,20.17
2023-01-20T11:36:17.801Z,20.60
2023-01-20T11:38:49.814Z,19.02
2023-01-20T11:41:26.183Z,20.73
2023-01-20T11:43:56.368Z,20.35
2023-01-20T11:46:27.049Z,21.25
2023-01-20T11:49:24.631Z,19.98
2023-01-20T11:51:56.929Z,20.83
2023-01-20T11:54:29.498Z,18.88
2023-01-20T11:57:01.790Z,19.75
2023-01-20T11:59:31.797Z,19.90
2023-01-20T12:02:06.964Z,18.90
2023-01-20T12:04:41.560Z,20.90
2023-01-20T12:07:24.366Z,21.65
2023-01-20T12:09:55.302Z,20.92
2023-01-20T12:13:00.215Z,16.83
2023-01-20T12:15:32.477Z,23.83
2023-01-20T12:18:08.229Z,23.00
2023-01-20T12:20:54.597Z,21.55
2023-01-20T12:23:47.786Z,23.80
2023-01-20T12:26:17.408Z,22.05
2023-01-20T12:28:53.949Z,22.48
2023-01-20T12:31:24.145Z,22.15
2023-01-20T12:33:59.036Z,21.05
2023-01-20T12:36:32.570Z,21.20
2023-01-20T12:39:02.879Z,21.30
2023-01-20T12:41:48.873Z,21.67
2023-01-20T12:44:51.844Z,23.33
2023-01-20T12:47:37.319Z,20.67
2023-01-20T12:50:23.623Z,24.40
2023-01-20T12:53:17.065Z,22.55
2023-01-20T12:56:22.990Z,21.52
2023-01-20T12:59:06.344Z,25.98
2023-01-20T13:01:55.466Z,25.20
2023-01-20T13:04:25.311Z,26.00
2023-01-20T13:07:08.008Z,26.77
2023-01-20T13:09:49.980Z,27.33
2023-01-20T13:12:36.230Z,25.55
2023-01-20T13:15:36.656Z,25.60
2023-01-20T13:18:18.530Z,24.02
2023-01-20T13:20:46.724Z,24.83
2023-01-20T13:23:18.465Z,25.98
2023-01-20T13:25:47.548Z,22.05
2023-01-20T13:28:18.336Z,24.00
2023-01-20T13:30:50.937Z,22.63
2023-01-20T13:33:33.133Z,21.17
2023-01-20T13:36:14.414Z,21.08
2023-01-20T13:38:43.096Z,22.27
2023-01-20T13:41:11.048Z,22.85
2023-01-20T13:43:44.447Z,22.50
2023-01-20T13:46:34.207Z,23.75
2023-01-20T13:49:13.891Z,23.55
2023-01-20T13:51:46.086Z,23.95
2023-01-20T13:54:25.617Z,23.77
2023-01-20T13:56:53.146Z,24.92
2023-01-20T13:59:20.745Z,22.67
2023-01-20T14:01:48.183Z,23.42
2023-01-20T14:04:18.713Z,23.25
2023-01-20T14:06:47.904Z,22.75
2023-01-20T14:09:23.753Z,25.23
2023-01-20T14:11:53.203Z,22.65
2023-01-20T14:14:24.600Z,22.88
2023-01-20T14:16:52.885Z,25.25
2023-01-20T14:19:32.449Z,22.17
2023-01-20T14:22:20.544Z,22.10
2023-01-20T14:24:49.747Z,21.75
2023-01-20T14:27:16.902Z,22.15
2023-01-20T14:29:45.242Z,21.52
2023-01-20T14:32:31.399Z,24.10
2023-01-20T14:34:59.784Z,23.10
2023-01-20T14:37:30.103Z,23.15
2023-01-20T14:40:00.805Z,25.02
2023-01-20T14:42:29.296Z,24.88
2023-01-20T14:44:57.769Z,26.50
2023-01-20T14:47:27.051Z,23.67
2023-01-20T14:49:55.418Z,28.63
2023-01-20T14:52:28.768Z,23.60
2023-01-20T14:54:57.174Z,25.95
2023-01-20T14:57:34.977Z,25.02
2023-01-20T15:00:11.712Z,24.60
2023-01-20T15:02:41.301Z,23.67
2023-01-20T15:05:31.591Z,24.80
2023-01-20T15:08:19.180Z,25.33
2023-01-20T15:10:47.894Z,23.95
2023-01-20T15:13:26.647Z,24.73
2023-01-20T15:16:20.957Z,24.73
2023-01-20T15:19:17.628Z,26.63
2023-01-20T15:21:46.130Z,25.33
2023-01-20T15:24:34.680Z,25.85
2023-01-20T15:27:04.157Z,26.10
2023-01-20T15:29:36.709Z,26.73
2023-01-20T15:32:12.774Z,28.48
2023-01-20T15:34:40.099Z,28.45
2023-01-20T15:37:18.479Z,25.17
2023-01-20T15:39:45.789Z,26.67
2023-01-20T15:42:15.389Z,25.73
2023-01-20T15:44:42.753Z,27.65
2023-01-20T15:47:21.767Z,25.83
2023-01-20T15:49:49.218Z,25.90
2023-01-20T15:52:16.757Z,28.85
2023-01-20T15:54:44.050Z,28.90
2023-01-20T15:57:16.972Z,30.25
2023-01-20T15:59:49.691Z,28.33
2023-01-20T16:02:23.183Z,28.52
2023-01-20T16:04:50.968Z,27.60
2023-01-20T16:07:21.194Z,27.13
2023-01-20T16:09:48.673Z,26.38
2023-01-20T16:12:18.541Z,27.55
2023-01-20T16:14:46.164Z,26.60
2023-01-20T16:17:19.277Z,25.67
2023-01-20T16:19:47.494Z,28.67
2023-01-20T16:22:15.044Z,29.42
2023-01-20T16:24:42.795Z,27.65
2023-01-20T16:27:21.542Z,27.52
2023-01-20T16:29:49.421Z,25.33
2023-01-20T16:32:18.787Z,25.45
2023-01-20T16:34:47.696Z,25.67
2023-01-20T16:37:15.206Z,25.08
2023-01-20T16:39:42.552Z,27.70
2023-01-20T16:42:15.233Z,26.38
2023-01-20T16:44:42.443Z,24.73
2023-01-20T16:47:09.971Z,25.67
2023-01-20T16:49:37.289Z,25.83
2023-01-20T16:52:05.064Z,24.77
2023-01-20T16:54:32.339Z,24.13
2023-01-20T16:56:59.872Z,26.60
2023-01-20T16:59:27.141Z,26.30
2023-01-20T17:01:54.750Z,27.27
2023-01-20T17:04:22.157Z,26.52
2023-01-20T17:06:52.779Z,30.48
2023-01-20T17:09:20.153Z,28.85
2023-01-20T17:11:47.691Z,27.70
2023-01-20T17:14:15.684Z,29.63
2023-01-20T17:16:43.426Z,28.05
2023-01-20T17:19:11.145Z,29.35
2023-01-20T17:21:39.469Z,29.45
2023-01-20T17:24:07.476Z,30.17
2023-01-20T17:26:37.104Z,29.52
2023-01-20T17:29:05.369Z,31.42
2023-01-20T17:31:36.490Z,28.95
2023-01-20T17:34:04.931Z,26.80
2023-01-20T17:36:35.987Z,31.77
2023-01-20T17:39:04.292Z,30.33
2023-01-20T17:41:32.742Z,28.95
2023-01-20T17:44:00.232Z,28.30
2023-01-20T17:46:29.850Z,29.88
2023-01-20T17:48:58.737Z,29.27
2023-01-20T17:51:28.853Z,28.83
2023-01-20T17:53:57.975Z,30.65
2023-01-20T17:56:25.934Z,29.40
2023-01-20T17:58:54.095Z,27.10
2023-01-20T18:01:27.218Z,28.80
2023-01-20T18:03:56.417Z,27.77
2023-01-20T18:06:25.465Z,28.77
2023-01-20T18:08:55.592Z,28.17
2023-01-20T18:11:24.964Z,28.05
2023-01-20T18:13:55.376Z,29.77
2023-01-20T18:16:28.586Z,29.58
2023-01-20T18:18:59.003Z,29.35
2023-01-20T18:21:31.651Z,29.70
2023-01-20T18:24:00.035Z,26.73
2023-01-20T18:26:30.004Z,28.77
2023-01-20T18:29:00.089Z,29.50
2023-01-20T18:31:29.545Z,27.88
2023-01-20T18:34:02.139Z,30.20
2023-01-20T18:36:35.797Z,29.13
2023-01-20T18:39:12.775Z,27.77
2023-01-20T18:41:40.549Z,27.92
2023-01-20T18:44:08.140Z,26.95
2023-01-20T18:46:36.281Z,26.25
2023-01-20T18:49:05.821Z,26.50
2023-01-20T18:51:34.980Z,27.00
2023-01-20T18:54:07.847Z,30.52
2023-01-20T18:56:35.889Z,27.98
2023-01-20T18:59:04.800Z,27.52
2023-01-20T19:01:39.821Z,27.83
2023-01-20T19:04:10.208Z,28.58
2023-01-20T19:06:40.656Z,27.33
2023-01-20T19:09:08.728Z,29.40
2023-01-20T19:11:39.714Z,27.98
2023-01-20T19:14:09.482Z,27.25
2023-01-20T19:16:39.232Z,27.48
2023-01-20T19:19:07.901Z,28.00
2023-01-20T19:21:36.584Z,29.52
2023-01-20T19:24:07.642Z,27.10
2023-01-20T19:26:37.682Z,27.73
2023-01-20T19:29:07.938Z,25.98
2023-01-20T19:31:38.121Z,26.90
2023-01-20T19:34:06.833Z,26.67
2023-01-20T19:36:35.209Z,26.92
2023-01-20T19:39:02.664Z,26.13
2023-01-20T19:41:36.109Z,26.42
2023-01-20T19:44:06.721Z,25.65
2023-01-20T19:46:37.010Z,25.95
2023-01-20T19:49:04.693Z,25.52
2023-01-20T19:51:32.392Z,25.90
2023-01-20T19:54:01.194Z,25.48
2023-01-20T19:56:34.225Z,25.63
2023-01-20T19:59:02.529Z,25.00
2023-01-20T20:01:33.127Z,25.42
2023-01-20T20:04:05.678Z,24.30
2023-01-20T20:06:38.959Z,26.00
2023-01-20T20:09:12.177Z,26.30
2023-01-20T20:11:40.428Z,27.25
2023-01-20T20:14:11.320Z,25.20
2023-01-20T20:16:39.101Z,24.80
2023-01-20T20:19:08.491Z,23.48
2023-01-20T20:21:36.292Z,24.20
2023-01-20T20:24:05.408Z,20.83
2023-01-20T20:26:35.809Z,20.70
2023-01-20T20:29:05.203Z,20.85
2023-01-20T20:31:34.399Z,19.83
2023-01-20T20:34:03.249Z,20.20
2023-01-20T20:36:32.962Z,20.05
2023-01-20T20:39:01.729Z,18.98
2023-01-20T20:41:31.887Z,19.33
2023-01-20T20:44:00.893Z,20.08
2023-01-20T20:46:29.770Z,20.35
2023-01-20T20:49:02.153Z,19.38
2023-01-20T20:51:33.082Z,18.23
2023-01-20T20:54:03.155Z,18.50
2023-01-20T20:56:34.142Z,18.58
2023-01-20T20:59:03.643Z,17.92
2023-01-20T21:01:33.868Z,17.85
2023-01-20T21:04:02.554Z,17.67
2023-01-20T21:06:30.890Z,17.63
2023-01-20T21:09:01.392Z,17.13
2023-01-20T21:11:29.377Z,17.40
2023-01-20T21:13:56.836Z,18.60
2023-01-20T21:16:26.213Z,16.63
2023-01-20T21:18:57.853Z,18.73
2023-01-20T21:21:25.863Z,17.90
2023-01-20T21:23:56.089Z,19.67
2023-01-20T21:26:25.901Z,19.90
2023-01-20T21:28:54.667Z,18.13
2023-01-20T21:31:26.692Z,19.23
2023-01-20T21:33:58.439Z,18.23
2023-01-20T21:36:26.895Z,19.38
2023-01-20T21:38:54.482Z,19.85
2023-01-20T21:41:22.197Z,21.90
2023-01-20T21:44:08.059Z,21.15
2023-01-20T21:46:40.451Z,19.33
2023-01-20T21:49:27.168Z,20.85
2023-01-20T21:52:14.218Z,22.10
2023-01-20T21:54:42.091Z,20.75
2023-01-20T21:57:09.695Z,20.73
2023-01-20T21:59:37.504Z,22.48
2023-01-20T22:02:05.786Z,20.80
2023-01-20T22:04:34.863Z,22.02
2023-01-20T22:07:02.511Z,22.38
2023-01-20T22:09:29.916Z,20.63
2023-01-20T22:11:57.571Z,19.00
2023-01-20T22:14:24.851Z,19.48
2023-01-20T22:16:52.409Z,21.10
2023-01-20T22:19:19.645Z,18.98
2023-01-20T22:21:47.299Z,18.92
2023-01-20T22:24:14.549Z,18.17
2023-01-20T22:26:42.125Z,19.98
2023-01-20T22:29:09.594Z,20.40
2023-01-20T22:31:37.205Z,20.33
2023-01-20T22:34:06.375Z,27.02
2023-01-20T22:36:34.360Z,20.98
2023-01-20T22:39:03.147Z,20.17
2023-01-20T22:41:31.278Z,18.63
2023-01-20T22:43:58.958Z,18.05
2023-01-20T22:46:28.894Z,17.27
2023-01-20T22:48:58.182Z,16.73
2023-01-20T22:51:28.478Z,22.95
2023-01-20T22:53:57.196Z,21.83
2023-01-20T22:56:26.950Z,17.67
2023-01-20T22:58:56.716Z,17.92
2023-01-20T23:01:30.888Z,17.10
2023-01-20T23:04:00.873Z,18.35
2023-01-20T23:06:30.795Z,18.35
2023-01-20T23:08:59.406Z,17.77
2023-01-20T23:11:27.098Z,17.10
2023-01-20T23:13:54.552Z,18.33
2023-01-20T23:16:23.023Z,17.88
2023-01-20T23:18:51.478Z,18.05
2023-01-20T23:21:20.185Z,18.20
2023-01-20T23:23:54.148Z,17.38
2023-01-20T23:26:24.157Z,18.30
2023-01-20T23:28:53.586Z,17.60
2023-01-20T23:31:23.683Z,17.77
2023-01-20T23:33:51.129Z,18.45
2023-01-20T23:36:24.241Z,17.65
2023-01-20T23:38:54.580Z,18.20
2023-01-20T23:41:23.052Z,19.13
2023-01-20T23:43:50.411Z,21.65
2023-01-20T23:46:18.101Z,20.08
2023-01-20T23:48:47.018Z,19.83
2023-01-20T23:51:14.749Z,18.23
2023-01-20T23:53:42.184Z,16.48
2023-01-20T23:56:16.330Z,18.20
2023-01-20T23:58:44.313Z,18.95
